Terminal Aerodrome Forecast
Issued by NWS

Home | Current Version | Previous Version | Text Only | Print | Product List | Glossary Off
Versions: 1 2 3 4 5 6 7 8 9 10 11 12 13 14 15 16 17 18 19 20 21 22 23 24 25

252
FTUS43 KICT 251121
TAFCNU
TAF
KCNU 251121Z 2512/2612 33016G23KT P6SM VCSH OVC005
     FM251600 32014KT P6SM VCSH SCT009 OVC015
     FM252100 31011KT P6SM SCT015 BKN025=

USA.gov is the U.S. government's official web portal to all federal, state and local government web resources and services.